Kessingland, United Kingdom
Current Conditions -  °F | °C
As of 8:50 AM on Wednesday 26 Nov 2014 (Local Time) from EGSD Reporting Station
Light Rain Light Rain  
Wind Chill: 50°   Ceiling: 1300
Heat Index: 50°   Visibility: 4mi
Dew Point: 46°   Wind: 13mph
Humidity: 87%   Direction: 100°E
Pressure: 29.91"   Gusts: NA
Location:  52.42°N, 1.71°E
Report Text: EGSD 260850Z 10011KT 7000 -RA BKN013 10/08 Q1013
Loading
Personal Weather Stations






























Interactive Weather Map New forecast layout! Learn more

10-Day Weather Forecast

Advertisements
Track Severe Weather on mobile